DLH3TW EPWA-EDDM
Flight info
| Callsign | DLH3TW |
|---|---|
| Flight time | 1h 16m |
| Altitude | 32000 |
| Route | SOXER N869 UVIVI DCT ELVOT DCT IPRUX DCT NIRGO T108 LANDU |
| Aircraft | A21N/M-SDE2E3FGHIRWXY/LB1 |
Departure
| Time | 2026-05-06 12:58 |
|---|---|
| Airport | Warsaw Chopin Airport (EPWA) |
Arrival
| Time | 2026-05-06 14:15 |
|---|---|
| Airport | Munich Airport (EDDM) |
| Time | Latitude | Longitude | Altitude | Speed | Heading |
|---|---|---|---|---|---|
| 2026-05-06 12:30 | 52.17143 | 20.97001 | 366 ft | 0 kts | 62° |
| 2026-05-06 12:45 | 52.17137 | 20.96982 | 366 ft | 2 kts | 62° |
| 2026-05-06 12:46 | 52.17130 | 20.96961 | 366 ft | 2 kts | 62° |
| 2026-05-06 12:46 | 52.17123 | 20.96939 | 366 ft | 2 kts | 62° |
| 2026-05-06 12:46 | 52.17116 | 20.96919 | 366 ft | 1 kts | 62° |
| 2026-05-06 12:46 | 52.17107 | 20.96901 | 366 ft | 2 kts | 24° |
| 2026-05-06 12:47 | 52.17092 | 20.96898 | 366 ft | 2 kts | 345° |
| 2026-05-06 12:47 | 52.17081 | 20.96907 | 366 ft | 2 kts | 324° |
| 2026-05-06 12:47 | 52.17070 | 20.96918 | 366 ft | 0 kts | 333° |
| 2026-05-06 12:47 | 52.17067 | 20.96921 | 366 ft | 0 kts | 333° |
| 2026-05-06 12:52 | 52.17090 | 20.96902 | 366 ft | 6 kts | 332° |
| 2026-05-06 12:52 | 52.17141 | 20.96855 | 366 ft | 10 kts | 323° |
| 2026-05-06 12:52 | 52.17144 | 20.96743 | 366 ft | 11 kts | 242° |
| 2026-05-06 12:52 | 52.17083 | 20.96677 | 366 ft | 11 kts | 167° |
| 2026-05-06 12:53 | 52.17003 | 20.96737 | 366 ft | 12 kts | 154° |
| 2026-05-06 12:53 | 52.16926 | 20.96803 | 366 ft | 14 kts | 152° |
| 2026-05-06 12:53 | 52.16821 | 20.96895 | 366 ft | 20 kts | 151° |
| 2026-05-06 12:53 | 52.16688 | 20.97013 | 366 ft | 23 kts | 151° |
| 2026-05-06 12:54 | 52.16549 | 20.97132 | 366 ft | 22 kts | 153° |
| 2026-05-06 12:54 | 52.16417 | 20.97249 | 366 ft | 21 kts | 152° |
| 2026-05-06 12:54 | 52.16278 | 20.97369 | 366 ft | 23 kts | 152° |
| 2026-05-06 12:54 | 52.16129 | 20.97498 | 366 ft | 24 kts | 152° |
| 2026-05-06 12:55 | 52.15986 | 20.97623 | 365 ft | 23 kts | 152° |
| 2026-05-06 12:55 | 52.15847 | 20.97743 | 366 ft | 22 kts | 152° |
| 2026-05-06 12:55 | 52.15715 | 20.97858 | 365 ft | 21 kts | 152° |
| 2026-05-06 12:55 | 52.15643 | 20.98015 | 365 ft | 18 kts | 54° |
| 2026-05-06 12:56 | 52.15752 | 20.98115 | 366 ft | 17 kts | 26° |
| 2026-05-06 12:56 | 52.15863 | 20.98200 | 366 ft | 17 kts | 25° |
| 2026-05-06 12:56 | 52.15972 | 20.98279 | 366 ft | 16 kts | 24° |
| 2026-05-06 12:56 | 52.16065 | 20.98348 | 366 ft | 10 kts | 25° |
| 2026-05-06 12:57 | 52.16122 | 20.98319 | 366 ft | 10 kts | 292° |
| 2026-05-06 12:57 | 52.16153 | 20.98210 | 366 ft | 10 kts | 296° |
| 2026-05-06 12:57 | 52.16230 | 20.97929 | 366 ft | 58 kts | 294° |
| 2026-05-06 12:57 | 52.16496 | 20.96989 | 366 ft | 123 kts | 294° |
| 2026-05-06 12:58 | 52.16931 | 20.95434 | 371 ft | 175 kts | 291° |
| 2026-05-06 12:58 | 52.17450 | 20.93608 | 915 ft | 177 kts | 291° |
| 2026-05-06 12:58 | 52.17959 | 20.91796 | 1499 ft | 177 kts | 291° |
| 2026-05-06 12:58 | 52.18332 | 20.89894 | 2065 ft | 177 kts | 274° |
| 2026-05-06 12:59 | 52.18321 | 20.87869 | 2471 ft | 187 kts | 261° |
| 2026-05-06 12:59 | 52.18141 | 20.85670 | 2822 ft | 203 kts | 260° |
| 2026-05-06 12:59 | 52.18070 | 20.83246 | 3153 ft | 224 kts | 271° |
| 2026-05-06 12:59 | 52.18309 | 20.80624 | 3467 ft | 246 kts | 279° |
| 2026-05-06 13:00 | 52.18696 | 20.77829 | 3943 ft | 260 kts | 281° |
| 2026-05-06 13:00 | 52.19113 | 20.74961 | 4666 ft | 263 kts | 281° |
| 2026-05-06 13:00 | 52.19492 | 20.72046 | 5381 ft | 265 kts | 272° |
| 2026-05-06 13:00 | 52.19428 | 20.69079 | 5857 ft | 263 kts | 256° |
| 2026-05-06 13:01 | 52.18887 | 20.66187 | 6470 ft | 266 kts | 248° |
| 2026-05-06 13:01 | 52.18252 | 20.63389 | 7227 ft | 266 kts | 247° |
| 2026-05-06 13:01 | 52.17603 | 20.60554 | 7915 ft | 269 kts | 248° |
| 2026-05-06 13:01 | 52.16961 | 20.57712 | 8619 ft | 270 kts | 248° |
| 2026-05-06 13:02 | 52.16321 | 20.54849 | 9293 ft | 271 kts | 248° |
| 2026-05-06 13:02 | 52.15675 | 20.51932 | 9963 ft | 273 kts | 249° |
| 2026-05-06 13:02 | 52.15047 | 20.48952 | 10372 ft | 284 kts | 251° |
| 2026-05-06 13:02 | 52.14449 | 20.45825 | 10639 ft | 299 kts | 251° |
| 2026-05-06 13:03 | 52.13823 | 20.42525 | 10901 ft | 313 kts | 251° |
| 2026-05-06 13:03 | 52.13164 | 20.39056 | 11199 ft | 325 kts | 251° |
| 2026-05-06 13:03 | 52.12487 | 20.35494 | 11743 ft | 329 kts | 251° |
| 2026-05-06 13:03 | 52.11810 | 20.31952 | 12379 ft | 330 kts | 251° |
| 2026-05-06 13:04 | 52.11121 | 20.28345 | 12975 ft | 332 kts | 251° |
| 2026-05-06 13:04 | 52.10432 | 20.24751 | 13531 ft | 334 kts | 251° |
| 2026-05-06 13:04 | 52.09740 | 20.21148 | 14154 ft | 334 kts | 251° |
| 2026-05-06 13:04 | 52.09050 | 20.17541 | 14763 ft | 334 kts | 251° |
| 2026-05-06 13:05 | 52.08362 | 20.13970 | 15281 ft | 336 kts | 250° |
| 2026-05-06 13:05 | 52.07656 | 20.10315 | 15787 ft | 338 kts | 250° |
| 2026-05-06 13:05 | 52.06948 | 20.06661 | 16280 ft | 340 kts | 250° |
| 2026-05-06 13:05 | 52.06233 | 20.02985 | 16764 ft | 342 kts | 250° |
| 2026-05-06 13:06 | 52.05518 | 19.99312 | 17226 ft | 344 kts | 250° |
| 2026-05-06 13:06 | 52.04790 | 19.95586 | 17685 ft | 346 kts | 250° |
| 2026-05-06 13:06 | 52.04055 | 19.91892 | 18123 ft | 348 kts | 249° |
| 2026-05-06 13:06 | 52.03253 | 19.88159 | 18554 ft | 350 kts | 248° |
| 2026-05-06 13:07 | 52.02433 | 19.84414 | 18963 ft | 352 kts | 248° |
| 2026-05-06 13:07 | 52.01606 | 19.80638 | 19362 ft | 355 kts | 249° |
| 2026-05-06 13:07 | 52.00775 | 19.76832 | 19666 ft | 359 kts | 249° |
| 2026-05-06 13:07 | 51.99931 | 19.72967 | 19977 ft | 364 kts | 249° |
| 2026-05-06 13:08 | 51.99086 | 19.69096 | 20345 ft | 366 kts | 249° |
| 2026-05-06 13:08 | 51.98236 | 19.65207 | 20713 ft | 368 kts | 249° |
| 2026-05-06 13:08 | 51.97375 | 19.61270 | 21067 ft | 371 kts | 249° |
| 2026-05-06 13:08 | 51.96506 | 19.57313 | 21416 ft | 373 kts | 249° |
| 2026-05-06 13:09 | 51.95627 | 19.53307 | 21747 ft | 376 kts | 249° |
| 2026-05-06 13:09 | 51.94755 | 19.49335 | 22073 ft | 378 kts | 249° |
| 2026-05-06 13:09 | 51.93870 | 19.45315 | 22401 ft | 380 kts | 249° |
| 2026-05-06 13:09 | 51.92980 | 19.41280 | 22720 ft | 382 kts | 249° |
| 2026-05-06 13:10 | 51.92086 | 19.37238 | 23032 ft | 384 kts | 249° |
| 2026-05-06 13:10 | 51.91179 | 19.33143 | 23342 ft | 385 kts | 248° |
| 2026-05-06 13:10 | 51.90260 | 19.29009 | 23659 ft | 387 kts | 248° |
| 2026-05-06 13:10 | 51.89349 | 19.24916 | 23963 ft | 389 kts | 248° |
| 2026-05-06 13:11 | 51.88426 | 19.20775 | 24263 ft | 391 kts | 248° |
| 2026-05-06 13:11 | 51.87497 | 19.16615 | 24571 ft | 392 kts | 248° |
| 2026-05-06 13:11 | 51.86669 | 19.12913 | 24843 ft | 393 kts | 248° |
| 2026-05-06 13:11 | 51.85674 | 19.08398 | 25171 ft | 395 kts | 249° |
| 2026-05-06 13:12 | 51.84762 | 19.04210 | 25468 ft | 396 kts | 249° |
| 2026-05-06 13:12 | 51.83851 | 19.00029 | 25754 ft | 397 kts | 248° |
| 2026-05-06 13:12 | 51.82879 | 18.95587 | 26047 ft | 398 kts | 248° |
| 2026-05-06 13:12 | 51.81934 | 18.91292 | 26318 ft | 399 kts | 248° |
| 2026-05-06 13:13 | 51.81000 | 18.87052 | 26586 ft | 400 kts | 248° |
| 2026-05-06 13:13 | 51.80043 | 18.82705 | 26845 ft | 401 kts | 248° |
| 2026-05-06 13:13 | 51.79090 | 18.78388 | 27088 ft | 403 kts | 248° |
| 2026-05-06 13:13 | 51.78140 | 18.74093 | 27325 ft | 404 kts | 248° |
| 2026-05-06 13:14 | 51.77177 | 18.69750 | 27569 ft | 405 kts | 248° |
| 2026-05-06 13:14 | 51.76226 | 18.65469 | 27795 ft | 406 kts | 248° |
| 2026-05-06 13:14 | 51.75264 | 18.61151 | 28027 ft | 407 kts | 248° |
| 2026-05-06 13:14 | 51.74293 | 18.56799 | 28262 ft | 408 kts | 248° |
| 2026-05-06 13:15 | 51.73336 | 18.52517 | 28478 ft | 409 kts | 248° |
| 2026-05-06 13:15 | 51.72368 | 18.48196 | 28696 ft | 410 kts | 248° |
| 2026-05-06 13:15 | 51.71401 | 18.43895 | 28921 ft | 411 kts | 248° |
| 2026-05-06 13:15 | 51.70425 | 18.39551 | 29190 ft | 410 kts | 248° |
| 2026-05-06 13:16 | 51.69452 | 18.35233 | 29491 ft | 409 kts | 247° |
| 2026-05-06 13:16 | 51.68470 | 18.30892 | 29806 ft | 408 kts | 246° |
| 2026-05-06 13:16 | 51.67504 | 18.26620 | 30097 ft | 407 kts | 246° |
| 2026-05-06 13:16 | 51.66539 | 18.22369 | 30336 ft | 407 kts | 246° |
| 2026-05-06 13:17 | 51.65562 | 18.18077 | 30546 ft | 408 kts | 246° |
| 2026-05-06 13:17 | 51.64581 | 18.13777 | 30769 ft | 409 kts | 246° |
| 2026-05-06 13:17 | 51.63597 | 18.09468 | 30984 ft | 409 kts | 246° |
| 2026-05-06 13:17 | 51.62624 | 18.05218 | 31185 ft | 410 kts | 246° |
| 2026-05-06 13:18 | 51.61592 | 18.00904 | 31392 ft | 410 kts | 244° |
| 2026-05-06 13:18 | 51.60415 | 17.96766 | 31608 ft | 408 kts | 240° |
| 2026-05-06 13:18 | 51.59080 | 17.92769 | 31761 ft | 408 kts | 237° |
| 2026-05-06 13:19 | 51.55917 | 17.85172 | 31767 ft | 407 kts | 231° |
| 2026-05-06 13:19 | 51.52198 | 17.78340 | 31768 ft | 406 kts | 224° |
| 2026-05-06 13:20 | 51.48152 | 17.72027 | 31770 ft | 405 kts | 224° |
| 2026-05-06 13:20 | 51.44094 | 17.65728 | 31770 ft | 406 kts | 224° |
| 2026-05-06 13:21 | 51.40039 | 17.59462 | 31771 ft | 406 kts | 224° |
| 2026-05-06 13:21 | 51.35983 | 17.53219 | 31771 ft | 405 kts | 224° |
| 2026-05-06 13:22 | 51.31921 | 17.46984 | 31770 ft | 406 kts | 224° |
| 2026-05-06 13:22 | 51.27854 | 17.40758 | 31770 ft | 406 kts | 224° |
| 2026-05-06 13:23 | 51.23759 | 17.34508 | 31771 ft | 406 kts | 223° |
| 2026-05-06 13:23 | 51.19662 | 17.28271 | 31770 ft | 406 kts | 223° |
| 2026-05-06 13:24 | 51.15580 | 17.22072 | 31770 ft | 406 kts | 223° |
| 2026-05-06 13:24 | 51.11503 | 17.15897 | 31770 ft | 406 kts | 223° |
| 2026-05-06 13:25 | 51.07412 | 17.09715 | 31771 ft | 406 kts | 223° |
| 2026-05-06 13:25 | 51.03334 | 17.03568 | 31770 ft | 405 kts | 223° |
| 2026-05-06 13:26 | 50.99246 | 16.97423 | 31770 ft | 405 kts | 223° |
| 2026-05-06 13:26 | 50.95146 | 16.91277 | 31770 ft | 405 kts | 223° |
| 2026-05-06 13:27 | 50.91045 | 16.85142 | 31771 ft | 405 kts | 223° |
| 2026-05-06 13:27 | 50.86936 | 16.79013 | 31771 ft | 405 kts | 223° |
| 2026-05-06 13:28 | 50.82824 | 16.72894 | 31770 ft | 406 kts | 223° |
| 2026-05-06 13:28 | 50.78686 | 16.66752 | 31770 ft | 406 kts | 223° |
| 2026-05-06 13:29 | 50.74569 | 16.60656 | 31770 ft | 406 kts | 223° |
| 2026-05-06 13:29 | 50.70443 | 16.54567 | 31770 ft | 406 kts | 223° |
| 2026-05-06 13:30 | 50.66362 | 16.48394 | 31770 ft | 406 kts | 226° |
| 2026-05-06 13:30 | 50.62638 | 16.41719 | 31770 ft | 407 kts | 231° |
| 2026-05-06 13:31 | 50.59333 | 16.34478 | 31771 ft | 407 kts | 236° |
| 2026-05-06 13:31 | 50.56486 | 16.26743 | 31771 ft | 408 kts | 240° |
| 2026-05-06 13:32 | 50.53867 | 16.18867 | 31770 ft | 408 kts | 240° |
| 2026-05-06 13:32 | 50.51213 | 16.10911 | 31770 ft | 409 kts | 240° |
| 2026-05-06 13:33 | 50.48574 | 16.03005 | 31770 ft | 409 kts | 240° |
| 2026-05-06 13:33 | 50.45930 | 15.95103 | 31770 ft | 409 kts | 240° |
| 2026-05-06 13:34 | 50.43282 | 15.87209 | 31770 ft | 409 kts | 240° |
| 2026-05-06 13:34 | 50.40638 | 15.79350 | 31770 ft | 409 kts | 240° |
| 2026-05-06 13:35 | 50.37969 | 15.71439 | 31771 ft | 409 kts | 240° |
| 2026-05-06 13:35 | 50.35304 | 15.63566 | 31774 ft | 409 kts | 240° |
| 2026-05-06 13:36 | 50.32636 | 15.55710 | 31778 ft | 409 kts | 240° |
| 2026-05-06 13:36 | 50.29964 | 15.47861 | 31782 ft | 409 kts | 240° |
| 2026-05-06 13:37 | 50.27278 | 15.40003 | 31786 ft | 410 kts | 240° |
| 2026-05-06 13:37 | 50.24574 | 15.32114 | 31791 ft | 409 kts | 239° |
| 2026-05-06 13:38 | 50.21900 | 15.24339 | 31795 ft | 409 kts | 239° |
| 2026-05-06 13:38 | 50.19193 | 15.16489 | 31796 ft | 409 kts | 239° |
| 2026-05-06 13:39 | 50.16491 | 15.08676 | 31797 ft | 409 kts | 239° |
| 2026-05-06 13:39 | 50.13771 | 15.00838 | 31795 ft | 409 kts | 239° |
| 2026-05-06 13:40 | 50.10610 | 14.91757 | 31787 ft | 409 kts | 239° |
| 2026-05-06 13:40 | 50.08338 | 14.85252 | 31781 ft | 409 kts | 239° |
| 2026-05-06 13:41 | 50.05615 | 14.77474 | 31776 ft | 409 kts | 239° |
| 2026-05-06 13:41 | 50.02885 | 14.69704 | 31773 ft | 409 kts | 239° |
| 2026-05-06 13:42 | 50.00159 | 14.61965 | 31773 ft | 409 kts | 239° |
| 2026-05-06 13:42 | 49.97398 | 14.54154 | 31773 ft | 409 kts | 239° |
| 2026-05-06 13:43 | 49.94659 | 14.46425 | 31773 ft | 409 kts | 239° |
| 2026-05-06 13:43 | 49.91893 | 14.38641 | 31773 ft | 410 kts | 239° |
| 2026-05-06 13:44 | 49.89151 | 14.30956 | 31775 ft | 410 kts | 239° |
| 2026-05-06 13:44 | 49.86395 | 14.23250 | 31773 ft | 409 kts | 239° |
| 2026-05-06 13:45 | 49.83622 | 14.15521 | 31772 ft | 409 kts | 239° |
| 2026-05-06 13:45 | 49.79475 | 14.04006 | 31772 ft | 409 kts | 239° |
| 2026-05-06 13:46 | 49.76702 | 13.96336 | 31772 ft | 409 kts | 239° |
| 2026-05-06 13:46 | 49.73914 | 13.88647 | 31772 ft | 409 kts | 239° |
| 2026-05-06 13:47 | 49.71130 | 13.80989 | 31772 ft | 409 kts | 239° |
| 2026-05-06 13:47 | 49.68335 | 13.73324 | 31772 ft | 408 kts | 239° |
| 2026-05-06 13:48 | 49.65549 | 13.65705 | 31772 ft | 408 kts | 239° |
| 2026-05-06 13:48 | 49.62774 | 13.58140 | 31772 ft | 408 kts | 239° |
| 2026-05-06 13:49 | 49.59965 | 13.50505 | 31772 ft | 408 kts | 239° |
| 2026-05-06 13:49 | 49.57175 | 13.42946 | 31772 ft | 407 kts | 239° |
| 2026-05-06 13:50 | 49.54367 | 13.35380 | 31771 ft | 407 kts | 237° |
| 2026-05-06 13:50 | 49.50991 | 13.28457 | 31772 ft | 405 kts | 226° |
| 2026-05-06 13:51 | 49.46789 | 13.22731 | 31772 ft | 406 kts | 216° |
| 2026-05-06 13:51 | 49.41886 | 13.18377 | 31772 ft | 408 kts | 206° |
| 2026-05-06 13:52 | 49.36599 | 13.15223 | 31773 ft | 409 kts | 203° |
| 2026-05-06 13:52 | 49.31342 | 13.11895 | 31771 ft | 407 kts | 207° |
| 2026-05-06 13:53 | 49.26295 | 13.08149 | 31435 ft | 405 kts | 208° |
| 2026-05-06 13:53 | 49.23747 | 13.06162 | 30458 ft | 411 kts | 212° |
| 2026-05-06 13:53 | 49.21406 | 13.03616 | 29309 ft | 419 kts | 220° |
| 2026-05-06 13:54 | 49.19311 | 13.00519 | 28380 ft | 423 kts | 227° |
| 2026-05-06 13:54 | 49.17524 | 12.97020 | 27645 ft | 422 kts | 234° |
| 2026-05-06 13:54 | 49.15890 | 12.93295 | 27160 ft | 415 kts | 234° |
| 2026-05-06 13:54 | 49.14321 | 12.89670 | 26697 ft | 409 kts | 235° |
| 2026-05-06 13:55 | 49.12763 | 12.86062 | 26244 ft | 403 kts | 235° |
| 2026-05-06 13:55 | 49.11235 | 12.82525 | 25802 ft | 397 kts | 235° |
| 2026-05-06 13:55 | 49.09738 | 12.79062 | 25371 ft | 391 kts | 235° |
| 2026-05-06 13:55 | 49.08242 | 12.75607 | 24894 ft | 387 kts | 235° |
| 2026-05-06 13:56 | 49.06779 | 12.72234 | 24388 ft | 385 kts | 235° |
| 2026-05-06 13:56 | 49.05296 | 12.68817 | 23848 ft | 383 kts | 235° |
| 2026-05-06 13:56 | 49.03841 | 12.65469 | 23323 ft | 381 kts | 235° |
| 2026-05-06 13:56 | 49.02397 | 12.62146 | 22818 ft | 378 kts | 235° |
| 2026-05-06 13:57 | 49.00948 | 12.58819 | 22325 ft | 375 kts | 235° |
| 2026-05-06 13:57 | 48.99511 | 12.55521 | 21842 ft | 372 kts | 234° |
| 2026-05-06 13:57 | 48.98093 | 12.52273 | 21365 ft | 369 kts | 234° |
| 2026-05-06 13:57 | 48.96671 | 12.49020 | 20882 ft | 366 kts | 234° |
| 2026-05-06 13:58 | 48.95278 | 12.45838 | 20393 ft | 364 kts | 234° |
| 2026-05-06 13:58 | 48.93890 | 12.42667 | 19924 ft | 361 kts | 234° |
| 2026-05-06 13:58 | 48.92501 | 12.39500 | 19469 ft | 357 kts | 234° |
| 2026-05-06 13:58 | 48.91139 | 12.36399 | 18993 ft | 355 kts | 234° |
| 2026-05-06 13:59 | 48.89757 | 12.33258 | 18517 ft | 353 kts | 233° |
| 2026-05-06 13:59 | 48.88414 | 12.30204 | 18052 ft | 351 kts | 233° |
| 2026-05-06 13:59 | 48.87048 | 12.27107 | 17583 ft | 349 kts | 233° |
| 2026-05-06 13:59 | 48.85700 | 12.24054 | 17110 ft | 347 kts | 233° |
| 2026-05-06 14:00 | 48.84368 | 12.21041 | 16618 ft | 346 kts | 234° |
| 2026-05-06 14:00 | 48.83030 | 12.18018 | 16109 ft | 346 kts | 234° |
| 2026-05-06 14:00 | 48.81695 | 12.15005 | 15598 ft | 345 kts | 234° |
| 2026-05-06 14:00 | 48.80351 | 12.11972 | 15083 ft | 345 kts | 234° |
| 2026-05-06 14:01 | 48.79018 | 12.08970 | 14574 ft | 344 kts | 234° |
| 2026-05-06 14:01 | 48.77694 | 12.05988 | 14078 ft | 343 kts | 234° |
| 2026-05-06 14:01 | 48.76351 | 12.02970 | 13574 ft | 343 kts | 234° |
| 2026-05-06 14:01 | 48.75038 | 12.00020 | 13080 ft | 342 kts | 235° |
| 2026-05-06 14:02 | 48.73694 | 11.97002 | 12565 ft | 341 kts | 235° |
| 2026-05-06 14:02 | 48.72385 | 11.94067 | 12064 ft | 341 kts | 235° |
| 2026-05-06 14:02 | 48.71048 | 11.91075 | 11565 ft | 340 kts | 235° |
| 2026-05-06 14:02 | 48.69727 | 11.88118 | 11076 ft | 339 kts | 235° |
| 2026-05-06 14:03 | 48.68422 | 11.85201 | 10599 ft | 338 kts | 235° |
| 2026-05-06 14:03 | 48.67119 | 11.82274 | 10124 ft | 336 kts | 236° |
| 2026-05-06 14:03 | 48.65832 | 11.79381 | 9740 ft | 321 kts | 236° |
| 2026-05-06 14:03 | 48.64616 | 11.76649 | 9476 ft | 307 kts | 236° |
| 2026-05-06 14:04 | 48.63494 | 11.73986 | 9222 ft | 300 kts | 240° |
| 2026-05-06 14:04 | 48.62540 | 11.71215 | 8970 ft | 293 kts | 243° |
| 2026-05-06 14:04 | 48.61650 | 11.68476 | 8717 ft | 286 kts | 244° |
| 2026-05-06 14:04 | 48.60790 | 11.65809 | 8466 ft | 281 kts | 244° |
| 2026-05-06 14:05 | 48.59921 | 11.63195 | 8214 ft | 280 kts | 238° |
| 2026-05-06 14:05 | 48.58709 | 11.60894 | 7961 ft | 280 kts | 226° |
| 2026-05-06 14:05 | 48.57347 | 11.58830 | 7696 ft | 280 kts | 224° |
| 2026-05-06 14:05 | 48.55939 | 11.56788 | 7228 ft | 280 kts | 224° |
| 2026-05-06 14:06 | 48.54518 | 11.54752 | 6787 ft | 280 kts | 224° |
| 2026-05-06 14:06 | 48.53103 | 11.52736 | 6411 ft | 279 kts | 224° |
| 2026-05-06 14:06 | 48.51707 | 11.50755 | 6038 ft | 277 kts | 224° |
| 2026-05-06 14:06 | 48.50307 | 11.48773 | 5687 ft | 275 kts | 224° |
| 2026-05-06 14:07 | 48.48933 | 11.46832 | 5435 ft | 269 kts | 224° |
| 2026-05-06 14:07 | 48.47590 | 11.44937 | 5184 ft | 263 kts | 224° |
| 2026-05-06 14:07 | 48.46259 | 11.43058 | 4929 ft | 257 kts | 224° |
| 2026-05-06 14:07 | 48.44978 | 11.41247 | 4754 ft | 249 kts | 224° |
| 2026-05-06 14:08 | 48.43648 | 11.39640 | 4727 ft | 244 kts | 205° |
| 2026-05-06 14:08 | 48.42038 | 11.39311 | 4724 ft | 232 kts | 167° |
| 2026-05-06 14:08 | 48.40608 | 11.40280 | 4835 ft | 216 kts | 148° |
| 2026-05-06 14:08 | 48.39411 | 11.41405 | 4780 ft | 195 kts | 147° |
| 2026-05-06 14:09 | 48.38302 | 11.42497 | 4736 ft | 183 kts | 147° |
| 2026-05-06 14:09 | 48.37279 | 11.43511 | 4719 ft | 172 kts | 147° |
| 2026-05-06 14:09 | 48.36341 | 11.44615 | 4728 ft | 171 kts | 131° |
| 2026-05-06 14:09 | 48.35649 | 11.46040 | 4743 ft | 171 kts | 123° |
| 2026-05-06 14:10 | 48.35006 | 11.47561 | 4745 ft | 170 kts | 122° |
| 2026-05-06 14:10 | 48.34534 | 11.49186 | 4742 ft | 170 kts | 103° |
| 2026-05-06 14:10 | 48.34386 | 11.50934 | 4741 ft | 170 kts | 91° |
| 2026-05-06 14:10 | 48.34429 | 11.52718 | 4607 ft | 169 kts | 84° |
| 2026-05-06 14:11 | 48.34572 | 11.54472 | 4393 ft | 169 kts | 82° |
| 2026-05-06 14:11 | 48.34729 | 11.56211 | 4160 ft | 164 kts | 83° |
| 2026-05-06 14:11 | 48.34867 | 11.57862 | 3929 ft | 160 kts | 83° |
| 2026-05-06 14:11 | 48.34996 | 11.59531 | 3707 ft | 159 kts | 83° |
| 2026-05-06 14:12 | 48.35039 | 11.61168 | 3486 ft | 158 kts | 96° |
| 2026-05-06 14:12 | 48.34837 | 11.62792 | 3269 ft | 158 kts | 103° |
| 2026-05-06 14:12 | 48.34559 | 11.64401 | 3100 ft | 157 kts | 105° |
| 2026-05-06 14:12 | 48.34255 | 11.65971 | 2934 ft | 158 kts | 105° |
| 2026-05-06 14:13 | 48.33954 | 11.67542 | 2665 ft | 155 kts | 104° |
| 2026-05-06 14:13 | 48.33738 | 11.69125 | 2343 ft | 153 kts | 97° |
| 2026-05-06 14:13 | 48.33704 | 11.70697 | 2117 ft | 152 kts | 84° |
| 2026-05-06 14:13 | 48.33839 | 11.72259 | 1950 ft | 151 kts | 82° |
| 2026-05-06 14:14 | 48.33975 | 11.73863 | 1756 ft | 154 kts | 82° |
| 2026-05-06 14:14 | 48.34096 | 11.75468 | 1597 ft | 156 kts | 82° |
| 2026-05-06 14:14 | 48.34214 | 11.77037 | 1487 ft | 142 kts | 81° |
| 2026-05-06 14:14 | 48.34314 | 11.78315 | 1481 ft | 99 kts | 84° |
| 2026-05-06 14:15 | 48.34377 | 11.79010 | 1478 ft | 37 kts | 68° |
| 2026-05-06 14:15 | 48.34473 | 11.79236 | 1477 ft | 19 kts | 52° |
| 2026-05-06 14:15 | 48.34550 | 11.79392 | 1476 ft | 18 kts | 54° |
| 2026-05-06 14:15 | 48.34589 | 11.79474 | 1476 ft | 8 kts | 53° |
| 2026-05-06 14:16 | 48.34639 | 11.79542 | 1475 ft | 10 kts | 27° |
| 2026-05-06 14:16 | 48.34712 | 11.79557 | 1475 ft | 10 kts | 355° |
| 2026-05-06 14:16 | 48.34789 | 11.79553 | 1475 ft | 11 kts | 8° |
| 2026-05-06 14:16 | 48.34867 | 11.79556 | 1475 ft | 11 kts | 356° |
| 2026-05-06 14:17 | 48.34946 | 11.79542 | 1475 ft | 11 kts | 353° |
| 2026-05-06 14:17 | 48.35029 | 11.79527 | 1475 ft | 12 kts | 353° |
| 2026-05-06 14:17 | 48.35112 | 11.79512 | 1474 ft | 12 kts | 353° |
| 2026-05-06 14:17 | 48.35197 | 11.79497 | 1474 ft | 12 kts | 354° |
| 2026-05-06 14:18 | 48.35282 | 11.79484 | 1474 ft | 12 kts | 354° |
| 2026-05-06 14:18 | 48.35370 | 11.79469 | 1474 ft | 13 kts | 354° |
| 2026-05-06 14:18 | 48.35468 | 11.79452 | 1473 ft | 14 kts | 353° |
| 2026-05-06 14:18 | 48.35569 | 11.79434 | 1472 ft | 14 kts | 354° |
| 2026-05-06 14:19 | 48.35664 | 11.79418 | 1472 ft | 8 kts | 353° |
| 2026-05-06 14:19 | 48.35695 | 11.79399 | 1472 ft | 4 kts | 305° |
| 2026-05-06 14:19 | 48.35698 | 11.79359 | 1472 ft | 3 kts | 265° |
| 2026-05-06 14:19 | 48.35696 | 11.79331 | 1472 ft | 1 kts | 264° |
| 2026-05-06 14:20 | 48.35695 | 11.79315 | 1472 ft | 2 kts | 264° |
| 2026-05-06 14:20 | 48.35692 | 11.79273 | 1473 ft | 3 kts | 264° |
| 2026-05-06 14:20 | 48.35691 | 11.79260 | 1473 ft | 0 kts | 264° |
| 2026-05-06 14:20 | 48.35691 | 11.79258 | 1473 ft | 0 kts | 264° |